createdAt,value
2018-10-18T00:00:30.366Z,99872.21
2018-10-18T00:01:01.461Z,99881.80
2018-10-18T00:01:32.561Z,99879.17
2018-10-18T00:02:03.670Z,99873.95
2018-10-18T00:02:34.800Z,99874.02
2018-10-18T00:03:05.999Z,99874.90
2018-10-18T00:03:38.507Z,99875.23
2018-10-18T00:04:09.615Z,99873.46
2018-10-18T00:04:40.720Z,99866.78
2018-10-18T00:05:11.820Z,99868.97
2018-10-18T00:05:42.921Z,99880.70
2018-10-18T00:06:14.156Z,99872.41
2018-10-18T00:06:45.209Z,99871.81
2018-10-18T00:07:16.318Z,99873.38
2018-10-18T00:07:47.413Z,99879.31
2018-10-18T00:08:18.508Z,99868.33
2018-10-18T00:08:49.619Z,99876.97
2018-10-18T00:09:21.039Z,99879.22
2018-10-18T00:09:53.044Z,99873.16
2018-10-18T00:10:24.150Z,99874.13
2018-10-18T00:10:55.259Z,99871.04
2018-10-18T00:11:26.397Z,99871.45
2018-10-18T00:11:57.527Z,99869.32
2018-10-18T00:12:28.622Z,99869.80
2018-10-18T00:12:59.723Z,99868.61
2018-10-18T00:13:30.817Z,99868.64
2018-10-18T00:14:01.974Z,99865.23
2018-10-18T00:14:33.053Z,99866.55
2018-10-18T00:15:04.153Z,99869.57
2018-10-18T00:15:35.254Z,99873.50
2018-10-18T00:16:06.366Z,99863.39
2018-10-18T00:16:37.537Z,99863.80
2018-10-18T00:17:08.635Z,99869.95
2018-10-18T00:17:39.734Z,99863.92
2018-10-18T00:18:11.004Z,99867.88
2018-10-18T00:18:42.009Z,99862.20
2018-10-18T00:19:13.118Z,99862.20
2018-10-18T00:19:44.214Z,99868.36
2018-10-18T00:20:15.387Z,99867.95
2018-10-18T00:20:46.435Z,99863.17
2018-10-18T00:21:17.535Z,99861.52
2018-10-18T00:21:48.637Z,99863.33
2018-10-18T00:22:19.732Z,99861.61
2018-10-18T00:22:50.892Z,99864.63
2018-10-18T00:23:23.039Z,99864.16
2018-10-18T00:23:54.268Z,99862.98
2018-10-18T00:24:25.346Z,99867.38
2018-10-18T00:24:57.241Z,99860.83
2018-10-18T00:25:28.339Z,99863.13
2018-10-18T00:25:59.488Z,99863.13
2018-10-18T00:26:30.592Z,99866.22
2018-10-18T00:27:01.699Z,99860.98
2018-10-18T00:27:32.835Z,99863.69
2018-10-18T00:28:03.977Z,99860.29
2018-10-18T00:28:35.078Z,99863.87
2018-10-18T00:29:06.187Z,99866.90
2018-10-18T00:29:37.326Z,99864.77
2018-10-18T00:30:09.043Z,99865.21
2018-10-18T00:30:40.144Z,99863.96
2018-10-18T00:31:11.241Z,99862.24
2018-10-18T00:31:42.338Z,99860.56
2018-10-18T00:32:13.543Z,99861.48
2018-10-18T00:32:44.595Z,99860.64
2018-10-18T00:33:15.734Z,99862.42
2018-10-18T00:33:46.835Z,99857.19
2018-10-18T00:34:17.935Z,99861.14
2018-10-18T00:34:49.034Z,99859.83
2018-10-18T00:35:20.142Z,99861.26
2018-10-18T00:35:51.252Z,99862.22
2018-10-18T00:36:22.368Z,99858.21
2018-10-18T00:36:53.486Z,99862.14
2018-10-18T00:37:24.629Z,99861.27
2018-10-18T00:37:55.768Z,99862.16
2018-10-18T00:38:26.843Z,99857.45
2018-10-18T00:38:58.842Z,99864.41
2018-10-18T00:39:30.918Z,99861.38
2018-10-18T00:40:02.016Z,99855.33
2018-10-18T00:40:33.132Z,99854.48
2018-10-18T00:41:04.247Z,99852.30
2018-10-18T00:41:35.382Z,99850.20
2018-10-18T00:42:06.546Z,99847.59
2018-10-18T00:42:37.681Z,99845.32
2018-10-18T00:43:08.816Z,99851.81
2018-10-18T00:43:39.934Z,99850.50
2018-10-18T00:44:11.095Z,99850.09
2018-10-18T00:44:42.210Z,99849.68
2018-10-18T00:45:13.306Z,99845.34
2018-10-18T00:45:44.412Z,99844.97
2018-10-18T00:46:15.510Z,99850.58
2018-10-18T00:46:46.619Z,99842.73
2018-10-18T00:47:17.802Z,99844.97
2018-10-18T00:47:48.895Z,99845.88
2018-10-18T00:48:20.001Z,99845.00
2018-10-18T00:48:51.990Z,99847.24
2018-10-18T00:49:23.996Z,99844.64
2018-10-18T00:49:55.137Z,99844.22
2018-10-18T00:50:26.230Z,99837.46
2018-10-18T00:50:57.369Z,99837.52
2018-10-18T00:51:28.469Z,99838.71
2018-10-18T00:51:59.576Z,99837.81
2018-10-18T00:52:30.688Z,99838.71
2018-10-18T00:53:01.786Z,99840.55
2018-10-18T00:53:32.899Z,99838.30
2018-10-18T00:54:04.070Z,99838.30
2018-10-18T00:54:35.133Z,99837.46
2018-10-18T00:55:06.252Z,99839.23
2018-10-18T00:55:37.356Z,99834.03
2018-10-18T00:56:08.504Z,99837.05
2018-10-18T00:56:39.601Z,99838.86
2018-10-18T00:57:10.699Z,99836.70
2018-10-18T00:57:41.798Z,99837.60
2018-10-18T00:58:12.894Z,99838.50
2018-10-18T00:58:43.997Z,99836.35
2018-10-18T00:59:15.127Z,99837.20
2018-10-18T00:59:46.245Z,99838.12
2018-10-18T01:00:17.406Z,99833.33
2018-10-18T01:00:48.543Z,99833.81
2018-10-18T01:01:19.637Z,99830.36
2018-10-18T01:01:50.735Z,99837.80
2018-10-18T01:02:21.834Z,99828.64
2018-10-18T01:02:52.974Z,99830.84
2018-10-18T01:03:24.058Z,99827.45
2018-10-18T01:03:55.156Z,99830.06
2018-10-18T01:04:26.273Z,99830.48
2018-10-18T01:04:57.719Z,99829.19
2018-10-18T01:05:29.727Z,99828.35
2018-10-18T01:06:00.863Z,99826.63
2018-10-18T01:06:31.948Z,99830.12
2018-10-18T01:07:03.058Z,99827.09
2018-10-18T01:07:34.177Z,99827.53
2018-10-18T01:08:05.377Z,99827.09
2018-10-18T01:08:36.431Z,99827.53
2018-10-18T01:09:07.522Z,99825.81
2018-10-18T01:09:38.637Z,99824.50
2018-10-18T01:10:09.730Z,99825.79
2018-10-18T01:10:40.921Z,99823.61
2018-10-18T01:11:12.027Z,99825.37
2018-10-18T01:11:43.132Z,99823.11
2018-10-18T01:12:14.326Z,99823.52
2018-10-18T01:12:45.373Z,99820.00
2018-10-18T01:13:16.474Z,99826.55
2018-10-18T01:13:47.575Z,99823.41
2018-10-18T01:14:18.761Z,99822.09
2018-10-18T01:14:49.790Z,99819.83
2018-10-18T01:15:20.895Z,99822.91
2018-10-18T01:15:52.090Z,99819.39
2018-10-18T01:16:23.226Z,99821.48
2018-10-18T01:16:54.321Z,99822.30
2018-10-18T01:17:25.418Z,99819.69
2018-10-18T01:17:57.217Z,99820.52
2018-10-18T01:18:28.347Z,99818.78
2018-10-18T01:18:59.454Z,99816.58
2018-10-18T01:19:30.558Z,99814.86
2018-10-18T01:20:01.732Z,99820.16
2018-10-18T01:20:32.805Z,99821.41
2018-10-18T01:21:03.966Z,99813.48
2018-10-18T01:21:35.070Z,99818.17
2018-10-18T01:22:06.168Z,99817.27
2018-10-18T01:22:37.271Z,99815.91
2018-10-18T01:23:08.369Z,99811.97
2018-10-18T01:23:39.478Z,99815.00
2018-10-18T01:24:10.650Z,99819.36
2018-10-18T01:24:41.754Z,99814.94
2018-10-18T01:25:12.860Z,99812.79
2018-10-18T01:25:43.971Z,99817.97
2018-10-18T01:26:15.214Z,99816.66
2018-10-18T01:26:46.246Z,99813.14
2018-10-18T01:27:17.352Z,99818.78
2018-10-18T01:27:48.473Z,99813.92
2018-10-18T01:28:19.587Z,99817.41
2018-10-18T01:28:51.031Z,99815.23
2018-10-18T01:29:23.064Z,99812.17
2018-10-18T01:29:54.210Z,99813.08
2018-10-18T01:30:25.321Z,99811.30
2018-10-18T01:30:56.438Z,99811.77
2018-10-18T01:31:27.558Z,99813.55
2018-10-18T01:31:58.664Z,99813.55
2018-10-18T01:32:29.779Z,99806.06
2018-10-18T01:33:01.487Z,99805.56
2018-10-18T01:33:32.604Z,99804.73
2018-10-18T01:34:03.711Z,99806.38
2018-10-18T01:34:34.844Z,99804.11
2018-10-18T01:35:05.943Z,99804.11
2018-10-18T01:35:37.045Z,99809.23
2018-10-18T01:36:08.192Z,99807.98
2018-10-18T01:36:39.325Z,99806.20
2018-10-18T01:37:11.077Z,99810.59
2018-10-18T01:37:42.194Z,99805.36
2018-10-18T01:38:13.371Z,99802.74
2018-10-18T01:38:45.221Z,99809.76
2018-10-18T01:39:16.342Z,99807.08
2018-10-18T01:39:48.218Z,99806.20
2018-10-18T01:40:19.311Z,99813.22
2018-10-18T01:40:50.413Z,99806.61
2018-10-18T01:41:21.530Z,99799.09
2018-10-18T01:41:52.680Z,99805.15
2018-10-18T01:42:23.793Z,99802.94
2018-10-18T01:42:54.906Z,99804.25
2018-10-18T01:43:26.010Z,99803.72
2018-10-18T01:43:57.167Z,99803.22
2018-10-18T01:44:28.241Z,99807.09
2018-10-18T01:44:59.335Z,99798.27
2018-10-18T01:45:30.442Z,99802.60
2018-10-18T01:46:01.545Z,99798.67
2018-10-18T01:46:32.646Z,99799.14
2018-10-18T01:47:03.793Z,99799.58
2018-10-18T01:47:34.892Z,99802.60
2018-10-18T01:48:06.072Z,99806.53
2018-10-18T01:48:37.134Z,99797.36
2018-10-18T01:49:08.251Z,99799.98
2018-10-18T01:49:39.364Z,99798.27
2018-10-18T01:50:10.539Z,99804.32
2018-10-18T01:50:41.595Z,99801.70
2018-10-18T01:51:12.690Z,99804.73
2018-10-18T01:51:43.799Z,99798.17
2018-10-18T01:52:14.937Z,99795.98
2018-10-18T01:52:46.033Z,99797.30
2018-10-18T01:53:17.129Z,99798.23
2018-10-18T01:53:48.234Z,99796.11
2018-10-18T01:54:20.974Z,99801.85
2018-10-18T01:54:52.083Z,99795.36
2018-10-18T01:55:23.188Z,99794.52
2018-10-18T01:55:54.370Z,99791.09
2018-10-18T01:56:25.431Z,99795.98
2018-10-18T01:56:56.526Z,99792.17
2018-10-18T01:57:27.640Z,99790.87
2018-10-18T01:57:58.734Z,99793.02
2018-10-18T01:58:29.829Z,99795.17
2018-10-18T01:59:00.949Z,99791.70
2018-10-18T01:59:32.085Z,99791.36
2018-10-18T02:00:03.258Z,99791.36
2018-10-18T02:00:34.309Z,99795.30
2018-10-18T02:01:05.410Z,99792.67
2018-10-18T02:01:36.517Z,99793.86
2018-10-18T02:02:07.691Z,99793.36
2018-10-18T02:02:38.730Z,99795.98
2018-10-18T02:03:09.884Z,99795.17
2018-10-18T02:03:40.983Z,99785.09
2018-10-18T02:04:12.099Z,99789.84
2018-10-18T02:04:43.204Z,99792.95
2018-10-18T02:05:14.664Z,99790.34
2018-10-18T02:05:45.769Z,99792.95
2018-10-18T02:06:17.844Z,99789.91
2018-10-18T02:06:48.887Z,99789.44
2018-10-18T02:07:19.999Z,99796.88
2018-10-18T02:07:51.104Z,99791.16
2018-10-18T02:08:22.235Z,99793.77
2018-10-18T02:08:53.344Z,99795.48
2018-10-18T02:09:24.482Z,99794.61
2018-10-18T02:09:55.598Z,99788.53
2018-10-18T02:10:26.699Z,99787.31
2018-10-18T02:10:57.806Z,99795.23
2018-10-18T02:11:28.902Z,99789.58
2018-10-18T02:12:00.033Z,99793.08
2018-10-18T02:12:31.137Z,99792.27
2018-10-18T02:13:02.245Z,99792.27
2018-10-18T02:13:33.392Z,99790.95
2018-10-18T02:14:04.528Z,99786.68
2018-10-18T02:14:35.658Z,99784.97
2018-10-18T02:15:06.762Z,99789.36
2018-10-18T02:15:37.880Z,99789.86
2018-10-18T02:16:09.019Z,99795.09
2018-10-18T02:16:40.134Z,99789.04
2018-10-18T02:17:11.239Z,99792.59
2018-10-18T02:17:42.348Z,99790.47
2018-10-18T02:18:13.550Z,99783.98
2018-10-18T02:18:44.637Z,99787.94
2018-10-18T02:19:15.837Z,99787.04
2018-10-18T02:19:46.905Z,99786.26
2018-10-18T02:20:18.013Z,99786.69
2018-10-18T02:20:49.150Z,99782.70
2018-10-18T02:21:20.249Z,99785.32
2018-10-18T02:21:51.353Z,99787.45
2018-10-18T02:22:22.453Z,99785.30
2018-10-18T02:22:53.553Z,99784.42
2018-10-18T02:23:25.291Z,99784.98
2018-10-18T02:23:56.466Z,99786.34
2018-10-18T02:24:27.538Z,99787.77
2018-10-18T02:24:58.659Z,99788.20
2018-10-18T02:25:29.757Z,99784.75
2018-10-18T02:26:01.177Z,99788.67
2018-10-18T02:26:32.398Z,99792.25
2018-10-18T02:27:03.506Z,99784.84
2018-10-18T02:27:34.605Z,99788.39
2018-10-18T02:28:05.708Z,99791.44
2018-10-18T02:28:36.802Z,99792.34
2018-10-18T02:29:07.906Z,99788.41
2018-10-18T02:29:39.143Z,99785.02
2018-10-18T02:30:10.296Z,99787.72
2018-10-18T02:30:41.370Z,99793.42
2018-10-18T02:31:12.474Z,99789.55
2018-10-18T02:31:43.570Z,99793.67
2018-10-18T02:32:14.671Z,99786.34
2018-10-18T02:32:45.769Z,99790.30
2018-10-18T02:33:16.891Z,99792.02
2018-10-18T02:33:47.994Z,99796.41
2018-10-18T02:34:19.093Z,99786.38
2018-10-18T02:34:50.221Z,99790.35
2018-10-18T02:35:21.314Z,99790.06
2018-10-18T02:35:52.772Z,99790.13
2018-10-18T02:36:23.976Z,99792.33
2018-10-18T02:36:55.038Z,99790.91
2018-10-18T02:37:26.132Z,99788.75
2018-10-18T02:37:57.302Z,99794.89
2018-10-18T02:38:28.405Z,99796.31
2018-10-18T02:38:59.507Z,99795.91
2018-10-18T02:39:30.618Z,99793.28
2018-10-18T02:40:01.738Z,99795.95
2018-10-18T02:40:32.844Z,99792.06
2018-10-18T02:41:03.957Z,99792.58
2018-10-18T02:41:35.067Z,99796.50
2018-10-18T02:42:06.207Z,99794.79
2018-10-18T02:42:37.293Z,99792.66
2018-10-18T02:43:08.437Z,99797.05
2018-10-18T02:43:39.547Z,99792.78
2018-10-18T02:44:10.643Z,99788.86
2018-10-18T02:44:41.756Z,99791.47
2018-10-18T02:45:12.863Z,99790.70
2018-10-18T02:45:43.967Z,99790.38
2018-10-18T02:46:15.077Z,99793.05
2018-10-18T02:46:46.184Z,99787.87
2018-10-18T02:47:17.304Z,99787.93
2018-10-18T02:47:48.413Z,99788.83
2018-10-18T02:48:19.619Z,99787.93
2018-10-18T02:48:50.726Z,99792.75
2018-10-18T02:49:21.831Z,99794.91
2018-10-18T02:49:52.956Z,99788.34
2018-10-18T02:50:24.071Z,99786.56
2018-10-18T02:50:55.229Z,99785.26
2018-10-18T02:51:26.345Z,99790.02
2018-10-18T02:51:57.460Z,99786.52
2018-10-18T02:52:28.596Z,99786.10
2018-10-18T02:52:59.714Z,99779.56
2018-10-18T02:53:30.826Z,99787.41
2018-10-18T02:54:01.943Z,99785.67
2018-10-18T02:54:33.047Z,99784.85
2018-10-18T02:55:04.156Z,99784.41
2018-10-18T02:55:35.259Z,99782.17
2018-10-18T02:56:06.402Z,99785.31
2018-10-18T02:56:37.515Z,99777.06
2018-10-18T02:57:08.623Z,99783.13
2018-10-18T02:57:39.725Z,99782.78
2018-10-18T02:58:10.839Z,99779.75
2018-10-18T02:58:41.973Z,99777.25
2018-10-18T02:59:13.074Z,99783.44
2018-10-18T02:59:44.185Z,99772.16
2018-10-18T03:00:15.464Z,99778.80
2018-10-18T03:00:46.442Z,99782.38
2018-10-18T03:01:17.597Z,99782.80
2018-10-18T03:01:48.710Z,99781.97
2018-10-18T03:02:19.835Z,99777.22
2018-10-18T03:02:50.959Z,99775.48
2018-10-18T03:03:22.070Z,99781.97
2018-10-18T03:03:53.181Z,99781.97
2018-10-18T03:04:24.294Z,99779.95
2018-10-18T03:04:55.394Z,99777.39
2018-10-18T03:05:26.494Z,99777.82
2018-10-18T03:05:57.698Z,99778.28
2018-10-18T03:06:28.779Z,99777.41
2018-10-18T03:06:59.889Z,99777.82
2018-10-18T03:07:30.989Z,99776.51
2018-10-18T03:08:02.087Z,99778.23
2018-10-18T03:08:33.255Z,99771.69
2018-10-18T03:09:04.395Z,99771.69
2018-10-18T03:09:35.482Z,99771.20
2018-10-18T03:10:06.576Z,99774.72
2018-10-18T03:10:37.929Z,99767.77
2018-10-18T03:11:09.061Z,99771.22
2018-10-18T03:11:40.169Z,99768.18
2018-10-18T03:12:11.317Z,99768.18
2018-10-18T03:12:42.407Z,99770.80
2018-10-18T03:13:13.530Z,99770.33
2018-10-18T03:13:44.680Z,99765.56
2018-10-18T03:14:15.787Z,99764.26
2018-10-18T03:14:46.886Z,99766.05
2018-10-18T03:15:17.995Z,99767.00
2018-10-18T03:15:49.136Z,99767.84
2018-10-18T03:16:20.269Z,99763.92
2018-10-18T03:16:51.374Z,99767.47
2018-10-18T03:17:22.474Z,99766.16
2018-10-18T03:17:53.592Z,99763.03
2018-10-18T03:18:24.710Z,99766.54
2018-10-18T03:18:55.825Z,99763.55
2018-10-18T03:19:26.935Z,99760.94
2018-10-18T03:19:58.051Z,99766.92
2018-10-18T03:20:29.151Z,99768.23
2018-10-18T03:21:00.249Z,99769.08
2018-10-18T03:21:31.410Z,99769.90
2018-10-18T03:22:02.508Z,99767.64
2018-10-18T03:22:33.639Z,99769.30
2018-10-18T03:23:04.819Z,99768.40
2018-10-18T03:23:35.920Z,99764.86
2018-10-18T03:24:07.139Z,99766.98
2018-10-18T03:24:38.183Z,99765.67
2018-10-18T03:25:09.318Z,99768.29
2018-10-18T03:25:40.416Z,99770.06
2018-10-18T03:26:11.514Z,99764.37
2018-10-18T03:26:42.675Z,99767.45
2018-10-18T03:27:13.782Z,99771.38
2018-10-18T03:27:44.883Z,99767.82
2018-10-18T03:28:15.982Z,99767.39
2018-10-18T03:28:47.077Z,99766.98
2018-10-18T03:29:18.207Z,99764.37
2018-10-18T03:29:49.305Z,99763.05
2018-10-18T03:30:20.524Z,99772.70
2018-10-18T03:30:51.541Z,99763.11
2018-10-18T03:31:22.646Z,99763.55
2018-10-18T03:31:53.778Z,99771.39
2018-10-18T03:32:24.904Z,99762.70
2018-10-18T03:32:56.018Z,99768.89
2018-10-18T03:33:27.176Z,99766.77
2018-10-18T03:33:58.286Z,99767.23
2018-10-18T03:34:29.395Z,99765.86
2018-10-18T03:35:00.520Z,99761.45
2018-10-18T03:35:31.636Z,99768.78
2018-10-18T03:36:02.828Z,99763.95
2018-10-18T03:36:33.853Z,99762.22
2018-10-18T03:37:04.960Z,99761.75
2018-10-18T03:37:36.058Z,99760.85
2018-10-18T03:38:07.160Z,99757.83
2018-10-18T03:38:38.298Z,99760.85
2018-10-18T03:39:09.405Z,99761.28
2018-10-18T03:39:40.519Z,99758.73
2018-10-18T03:40:11.637Z,99753.61
2018-10-18T03:40:42.775Z,99762.77
2018-10-18T03:41:13.877Z,99762.77
2018-10-18T03:41:44.984Z,99757.96
2018-10-18T03:42:16.182Z,99758.43
2018-10-18T03:42:47.229Z,99758.43
2018-10-18T03:43:18.337Z,99763.25
2018-10-18T03:43:49.443Z,99758.48
2018-10-18T03:44:20.568Z,99752.84
2018-10-18T03:44:51.673Z,99762.42
2018-10-18T03:45:22.793Z,99757.20
2018-10-18T03:45:53.935Z,99753.28
2018-10-18T03:46:25.037Z,99756.30
2018-10-18T03:46:56.143Z,99753.20
2018-10-18T03:47:27.290Z,99754.04
2018-10-18T03:47:58.428Z,99753.61
2018-10-18T03:48:29.522Z,99753.09
2018-10-18T03:49:00.627Z,99755.33
2018-10-18T03:49:31.738Z,99757.94
2018-10-18T03:50:02.843Z,99753.61
2018-10-18T03:50:33.951Z,99760.09
2018-10-18T03:51:05.055Z,99760.55
2018-10-18T03:51:36.162Z,99755.27
2018-10-18T03:52:07.264Z,99761.75
2018-10-18T03:52:38.413Z,99755.21
2018-10-18T03:53:09.535Z,99762.16
2018-10-18T03:53:40.638Z,99761.70
2018-10-18T03:54:11.805Z,99759.08
2018-10-18T03:54:42.872Z,99756.93
2018-10-18T03:55:13.977Z,99756.03
2018-10-18T03:55:45.082Z,99753.42
2018-10-18T03:56:16.187Z,99755.21
2018-10-18T03:56:47.297Z,99758.23
2018-10-18T03:57:18.406Z,99758.30
2018-10-18T03:57:49.578Z,99761.86
2018-10-18T03:58:20.698Z,99754.45
2018-10-18T03:58:51.806Z,99757.53
2018-10-18T03:59:22.935Z,99753.61
2018-10-18T03:59:54.089Z,99758.84
2018-10-18T04:00:25.179Z,99755.75
2018-10-18T04:00:56.306Z,99755.81
2018-10-18T04:01:27.415Z,99755.33
2018-10-18T04:01:58.516Z,99755.70
2018-10-18T04:02:29.624Z,99756.58
2018-10-18T04:03:00.757Z,99759.63
2018-10-18T04:03:31.893Z,99756.11
2018-10-18T04:04:02.989Z,99756.52
2018-10-18T04:04:34.084Z,99755.68
2018-10-18T04:05:05.217Z,99757.83
2018-10-18T04:05:36.318Z,99763.95
2018-10-18T04:06:07.453Z,99756.11
2018-10-18T04:06:38.571Z,99758.73
2018-10-18T04:07:09.671Z,99762.23
2018-10-18T04:07:40.771Z,99757.94
2018-10-18T04:08:11.875Z,99759.63
2018-10-18T04:08:42.981Z,99760.03
2018-10-18T04:09:14.150Z,99764.42
2018-10-18T04:09:45.251Z,99763.52
2018-10-18T04:10:16.466Z,99768.29
2018-10-18T04:10:47.566Z,99763.00
2018-10-18T04:11:18.673Z,99767.75
2018-10-18T04:11:49.842Z,99767.75
2018-10-18T04:12:21.024Z,99767.28
2018-10-18T04:12:52.167Z,99762.92
2018-10-18T04:13:23.297Z,99764.23
2018-10-18T04:13:54.373Z,99767.25
2018-10-18T04:14:25.511Z,99764.66
2018-10-18T04:14:56.638Z,99764.66
2018-10-18T04:15:28.077Z,99763.88
2018-10-18T04:15:59.184Z,99762.05
2018-10-18T04:16:31.700Z,99763.77
2018-10-18T04:17:02.810Z,99766.30
2018-10-18T04:17:33.915Z,99764.66
2018-10-18T04:18:05.090Z,99764.37
2018-10-18T04:18:36.209Z,99774.42
2018-10-18T04:19:07.278Z,99770.08
2018-10-18T04:19:38.393Z,99768.40
2018-10-18T04:20:09.504Z,99761.86
2018-10-18T04:20:40.607Z,99762.22
2018-10-18T04:21:11.743Z,99763.95
2018-10-18T04:21:42.866Z,99761.75
2018-10-18T04:22:13.986Z,99760.85
2018-10-18T04:22:45.086Z,99761.34
2018-10-18T04:23:16.187Z,99760.45
2018-10-18T04:23:48.886Z,99760.91
2018-10-18T04:24:20.005Z,99761.81
2018-10-18T04:24:51.119Z,99765.78
2018-10-18T04:25:22.229Z,99761.45
2018-10-18T04:25:53.346Z,99763.60
2018-10-18T04:26:24.454Z,99762.77
2018-10-18T04:26:55.581Z,99760.98
2018-10-18T04:27:26.721Z,99758.84
2018-10-18T04:27:57.814Z,99760.14
2018-10-18T04:28:28.923Z,99760.50
2018-10-18T04:29:00.027Z,99763.05
2018-10-18T04:29:31.146Z,99761.28
2018-10-18T04:30:02.272Z,99763.88
2018-10-18T04:30:33.375Z,99756.41
2018-10-18T04:31:04.525Z,99759.02
2018-10-18T04:31:35.641Z,99757.72
2018-10-18T04:32:06.761Z,99761.64
2018-10-18T04:32:37.880Z,99759.02
2018-10-18T04:33:08.992Z,99756.03
2018-10-18T04:33:40.100Z,99752.95
2018-10-18T04:34:11.210Z,99760.39
2018-10-18T04:34:42.317Z,99753.01
2018-10-18T04:35:15.334Z,99754.31
2018-10-18T04:35:46.471Z,99753.91
2018-10-18T04:36:17.664Z,99757.83
2018-10-18T04:36:48.697Z,99757.83
2018-10-18T04:37:19.814Z,99751.76
2018-10-18T04:37:51.582Z,99751.70
2018-10-18T04:38:23.012Z,99753.80
2018-10-18T04:38:54.153Z,99759.89
2018-10-18T04:39:25.249Z,99757.72
2018-10-18T04:39:56.359Z,99756.81
2018-10-18T04:40:27.458Z,99764.25
2018-10-18T04:40:58.597Z,99761.20
2018-10-18T04:41:29.707Z,99762.57
2018-10-18T04:42:00.888Z,99767.28
2018-10-18T04:42:32.075Z,99771.20
2018-10-18T04:43:03.190Z,99764.66
2018-10-18T04:43:34.293Z,99765.56
2018-10-18T04:44:05.442Z,99765.56
2018-10-18T04:44:36.547Z,99768.17
2018-10-18T04:45:07.658Z,99774.34
2018-10-18T04:45:38.766Z,99776.02
2018-10-18T04:46:09.883Z,99771.61
2018-10-18T04:46:40.991Z,99769.89
2018-10-18T04:47:12.176Z,99771.20
2018-10-18T04:47:43.295Z,99772.97
2018-10-18T04:48:14.415Z,99772.63
2018-10-18T04:48:45.463Z,99772.21
2018-10-18T04:49:16.583Z,99779.22
2018-10-18T04:49:47.685Z,99774.47
2018-10-18T04:50:18.790Z,99775.72
2018-10-18T04:50:49.887Z,99762.23
2018-10-18T04:51:21.029Z,99773.16
2018-10-18T04:51:52.133Z,99770.14
2018-10-18T04:52:23.242Z,99778.39
2018-10-18T04:52:54.341Z,99776.62
2018-10-18T04:53:25.461Z,99770.08
2018-10-18T04:53:56.578Z,99776.59
2018-10-18T04:54:31.408Z,99776.59
2018-10-18T04:55:02.653Z,99777.44
2018-10-18T04:55:33.706Z,99773.11
2018-10-18T04:56:04.814Z,99772.67
2018-10-18T04:56:36.004Z,99772.63
2018-10-18T04:57:07.067Z,99771.75
2018-10-18T04:57:38.187Z,99769.11
2018-10-18T04:58:09.293Z,99776.48
2018-10-18T04:58:40.398Z,99772.16
2018-10-18T04:59:48.847Z,99770.55
2018-10-18T05:00:19.954Z,99775.31
2018-10-18T05:00:51.117Z,99773.63
2018-10-18T05:01:22.363Z,99770.14
2018-10-18T05:01:53.371Z,99777.09
2018-10-18T05:02:24.485Z,99772.70
2018-10-18T05:02:55.582Z,99768.78
2018-10-18T05:03:26.684Z,99772.63
2018-10-18T05:03:57.786Z,99774.34
2018-10-18T05:04:28.958Z,99769.95
2018-10-18T05:05:00.063Z,99769.05
2018-10-18T05:05:31.201Z,99769.00
2018-10-18T05:06:02.308Z,99765.95
2018-10-18T05:06:33.435Z,99772.08
2018-10-18T05:07:04.570Z,99769.89
2018-10-18T05:07:35.689Z,99766.84
2018-10-18T05:08:06.790Z,99768.58
2018-10-18T05:08:37.929Z,99765.13
2018-10-18T05:09:09.064Z,99765.95
2018-10-18T05:09:40.174Z,99766.38
2018-10-18T05:10:11.286Z,99769.88
2018-10-18T05:10:42.391Z,99760.25
2018-10-18T05:11:13.559Z,99770.17
2018-10-18T05:11:44.686Z,99772.67
2018-10-18T05:12:15.790Z,99770.03
2018-10-18T05:12:47.062Z,99773.43
2018-10-18T05:13:18.144Z,99775.56
2018-10-18T05:13:49.134Z,99776.38
2018-10-18T05:14:20.244Z,99774.14
2018-10-18T05:14:51.360Z,99778.88
2018-10-18T05:15:22.498Z,99777.98
2018-10-18T05:15:53.600Z,99777.92
2018-10-18T05:16:24.745Z,99777.92
2018-10-18T05:16:55.848Z,99775.36
2018-10-18T05:17:26.946Z,99779.77
2018-10-18T05:17:58.059Z,99782.50
2018-10-18T05:18:29.153Z,99782.53
2018-10-18T05:19:00.329Z,99779.02
2018-10-18T05:19:31.426Z,99779.37
2018-10-18T05:20:02.551Z,99781.49
2018-10-18T05:20:33.702Z,99780.48
2018-10-18T05:21:04.810Z,99776.06
2018-10-18T05:21:35.919Z,99779.44
2018-10-18T05:22:07.030Z,99784.53
2018-10-18T05:22:38.152Z,99786.14
2018-10-18T05:23:09.270Z,99786.89
2018-10-18T05:23:40.392Z,99787.19
2018-10-18T05:24:11.504Z,99784.51
2018-10-18T05:24:42.608Z,99779.69
2018-10-18T05:25:13.734Z,99783.56
2018-10-18T05:30:34.029Z,99782.85
2018-10-18T05:31:05.226Z,99785.53
2018-10-18T05:31:36.322Z,99786.38
2018-10-18T05:32:07.440Z,99788.14
2018-10-18T05:32:38.558Z,99785.53
2018-10-18T05:33:09.672Z,99789.38
2018-10-18T05:33:40.770Z,99786.17
2018-10-18T05:34:11.873Z,99783.01
2018-10-18T05:34:43.007Z,99784.61
2018-10-18T05:35:14.103Z,99788.41
2018-10-18T05:35:45.238Z,99790.48
2018-10-18T05:36:16.359Z,99786.90
2018-10-18T05:36:47.491Z,99791.09
2018-10-18T05:37:18.722Z,99789.63
2018-10-18T05:37:49.774Z,99786.42
2018-10-18T05:38:20.850Z,99788.55
2018-10-18T05:38:52.019Z,99791.02
2018-10-18T05:39:23.121Z,99791.86
2018-10-18T05:39:54.221Z,99797.56
2018-10-18T05:40:25.317Z,99797.22
2018-10-18T05:40:56.971Z,99792.88
2018-10-18T05:41:28.099Z,99798.41
2018-10-18T05:42:00.425Z,99795.23
2018-10-18T05:42:33.755Z,99799.07
2018-10-18T05:43:07.299Z,99796.45
2018-10-18T05:43:38.388Z,99797.30
2018-10-18T05:44:09.502Z,99796.05
2018-10-18T05:44:42.467Z,99792.95
2018-10-18T05:45:13.619Z,99794.67
2018-10-18T05:45:46.728Z,99798.55
2018-10-18T05:46:17.900Z,99802.37
2018-10-18T05:46:49.069Z,99798.27
2018-10-18T05:47:21.102Z,99801.20
2018-10-18T05:47:52.172Z,99804.52
2018-10-18T05:48:23.281Z,99804.02
2018-10-18T05:48:54.445Z,99800.45
2018-10-18T05:49:26.282Z,99800.64
2018-10-18T05:49:58.626Z,99806.16
2018-10-18T05:50:30.538Z,99806.07
2018-10-18T05:51:01.663Z,99804.27
2018-10-18T05:51:32.762Z,99805.85
2018-10-18T05:52:08.847Z,99803.58
2018-10-18T05:52:39.981Z,99804.32
2018-10-18T05:53:11.219Z,99808.94
2018-10-18T05:53:42.347Z,99806.16
2018-10-18T05:54:13.543Z,99810.02
2018-10-18T05:54:44.571Z,99809.21
2018-10-18T05:55:15.776Z,99804.19
2018-10-18T05:55:46.822Z,99807.28
2018-10-18T05:56:17.930Z,99808.53
2018-10-18T05:56:49.025Z,99813.20
2018-10-18T05:57:20.171Z,99812.17
2018-10-18T05:57:51.293Z,99808.08
2018-10-18T05:58:22.405Z,99809.66
2018-10-18T05:58:53.556Z,99812.53
2018-10-18T05:59:24.654Z,99817.61
2018-10-18T05:59:55.795Z,99817.11
2018-10-18T06:00:26.986Z,99817.42
2018-10-18T06:00:58.075Z,99820.81
2018-10-18T06:01:29.182Z,99817.69
2018-10-18T06:02:00.332Z,99816.31
2018-10-18T06:02:31.435Z,99824.92
2018-10-18T06:03:02.544Z,99821.73
2018-10-18T06:03:33.655Z,99823.45
2018-10-18T06:04:04.805Z,99827.31
2018-10-18T06:04:35.903Z,99821.23
2018-10-18T06:05:07.003Z,99826.00
2018-10-18T06:05:38.115Z,99820.69
2018-10-18T06:06:09.453Z,99824.86
2018-10-18T06:06:41.566Z,99830.84
2018-10-18T06:07:12.699Z,99827.69
2018-10-18T06:07:43.820Z,99827.18
2018-10-18T06:08:14.967Z,99826.20
2018-10-18T06:08:46.066Z,99827.99
2018-10-18T06:09:17.187Z,99823.11
2018-10-18T06:09:48.379Z,99827.92
2018-10-18T06:10:19.496Z,99824.39
2018-10-18T06:10:50.572Z,99829.57
2018-10-18T06:11:22.606Z,99825.13
2018-10-18T06:11:54.031Z,99828.09